createdAt,value
2022-08-09T00:00:11.358Z,19.41
2022-08-09T00:04:10.050Z,19.33
2022-08-09T00:06:44.283Z,19.35
2022-08-09T00:09:50.632Z,19.30
2022-08-09T00:12:57.648Z,19.38
2022-08-09T00:16:03.115Z,19.35
2022-08-09T00:19:10.515Z,19.37
2022-08-09T00:22:15.575Z,19.39
2022-08-09T00:25:32.014Z,19.32
2022-08-09T00:28:38.440Z,19.30
2022-08-09T00:31:59.132Z,19.25
2022-08-09T00:35:07.110Z,19.21
2022-08-09T00:38:13.199Z,19.11
2022-08-09T00:44:14.879Z,19.08
2022-08-09T00:44:47.495Z,19.05
2022-08-09T00:47:52.595Z,19.01
2022-08-09T00:51:10.285Z,18.94
2022-08-09T00:54:18.058Z,18.87
2022-08-09T00:57:31.866Z,18.89
2022-08-09T01:00:42.711Z,18.91
2022-08-09T01:03:56.789Z,18.97
2022-08-09T01:07:16.963Z,18.99
2022-08-09T01:10:31.367Z,18.95
2022-08-09T01:13:59.621Z,18.87
2022-08-09T01:17:11.106Z,18.83
2022-08-09T01:20:21.401Z,18.89
2022-08-09T01:24:01.187Z,18.74
2022-08-09T01:27:09.805Z,18.66
2022-08-09T01:30:33.467Z,18.59
2022-08-09T01:33:42.651Z,18.53
2022-08-09T01:36:50.248Z,18.50
2022-08-09T01:39:57.255Z,18.47
2022-08-09T01:43:05.803Z,18.40
2022-08-09T01:46:23.836Z,18.22
2022-08-09T01:49:39.077Z,18.27
2022-08-09T01:52:47.489Z,18.31
2022-08-09T01:55:58.358Z,18.24
2022-08-09T01:59:11.526Z,18.19
2022-08-09T02:02:29.829Z,18.15
2022-08-09T02:05:53.513Z,18.04
2022-08-09T02:09:03.817Z,18.01
2022-08-09T02:12:11.271Z,17.99
2022-08-09T02:15:27.398Z,17.95
2022-08-09T02:18:52.522Z,17.87
2022-08-09T02:22:01.756Z,17.83
2022-08-09T02:25:15.276Z,17.84
2022-08-09T02:28:26.508Z,17.86
2022-08-09T02:31:37.618Z,17.84
2022-08-09T02:34:51.607Z,17.82
2022-08-09T02:38:02.640Z,17.83
2022-08-09T02:41:11.615Z,17.75
2022-08-09T02:44:30.345Z,17.71
2022-08-09T02:47:57.526Z,17.71
2022-08-09T02:51:05.296Z,17.64
2022-08-09T02:54:13.792Z,17.69
2022-08-09T02:57:23.594Z,17.70
2022-08-09T03:00:30.558Z,17.58
2022-08-09T03:04:17.690Z,17.58
2022-08-09T03:07:07.349Z,17.59
2022-08-09T03:10:19.345Z,17.55
2022-08-09T03:13:27.111Z,17.49
2022-08-09T03:16:50.282Z,17.46
2022-08-09T03:20:05.058Z,17.41
2022-08-09T03:23:24.670Z,17.35
2022-08-09T03:26:32.114Z,17.35
2022-08-09T03:29:57.373Z,17.32
2022-08-09T03:33:16.935Z,17.30
2022-08-09T03:36:27.619Z,17.20
2022-08-09T03:39:37.803Z,17.23
2022-08-09T03:42:43.360Z,17.22
2022-08-09T03:46:04.789Z,17.20
2022-08-09T03:49:17.292Z,17.12
2022-08-09T03:52:26.204Z,17.08
2022-08-09T03:55:35.887Z,17.04
2022-08-09T03:58:41.689Z,17.01
2022-08-09T04:01:53.682Z,16.99
2022-08-09T04:05:00.744Z,16.99
2022-08-09T04:08:08.412Z,16.97
2022-08-09T04:11:14.214Z,16.94
2022-08-09T04:14:53.446Z,16.92
2022-08-09T04:17:47.382Z,16.87
2022-08-09T04:20:52.730Z,16.83
2022-08-09T04:24:01.295Z,16.84
2022-08-09T04:27:07.730Z,16.78
2022-08-09T04:30:16.314Z,16.76
2022-08-09T04:33:23.622Z,16.72
2022-08-09T04:36:34.743Z,16.66
2022-08-09T04:39:41.552Z,16.72
2022-08-09T04:42:54.076Z,16.82
2022-08-09T04:45:58.873Z,16.83
2022-08-09T04:49:06.057Z,16.92
2022-08-09T04:52:18.704Z,16.98
2022-08-09T04:55:39.324Z,17.00
2022-08-09T04:58:56.737Z,17.01
2022-08-09T05:02:02.868Z,17.03
2022-08-09T05:05:09.655Z,17.08
2022-08-09T05:08:15.121Z,17.13
2022-08-09T05:11:21.835Z,17.20
2022-08-09T05:14:27.209Z,17.30
2022-08-09T05:18:42.869Z,17.38
2022-08-09T05:20:57.103Z,17.48
2022-08-09T05:24:05.445Z,17.55
2022-08-09T05:27:14.041Z,17.66
2022-08-09T05:30:23.403Z,17.74
2022-08-09T05:33:33.146Z,17.84
2022-08-09T05:36:39.694Z,17.95
2022-08-09T05:39:47.341Z,18.06
2022-08-09T05:42:54.021Z,18.18
2022-08-09T05:45:59.390Z,18.31
2022-08-09T05:49:07.268Z,18.43
2022-08-09T05:52:12.347Z,18.56
2022-08-09T05:55:21.345Z,18.69
2022-08-09T05:58:29.686Z,18.82
2022-08-09T06:01:42.322Z,18.95
2022-08-09T06:04:49.721Z,19.12
2022-08-09T06:08:05.317Z,19.28
2022-08-09T06:11:17.445Z,19.46
2022-08-09T06:14:24.270Z,19.67
2022-08-09T06:17:40.312Z,19.87
2022-08-09T06:20:49.829Z,20.13
2022-08-09T06:24:02.541Z,20.37
2022-08-09T06:27:07.649Z,20.61
2022-08-09T06:30:16.171Z,20.91
2022-08-09T06:33:39.860Z,21.67
2022-08-09T06:36:46.170Z,22.84
2022-08-09T06:40:00.153Z,23.93
2022-08-09T06:43:07.751Z,24.52
2022-08-09T06:46:40.269Z,24.71
2022-08-09T06:50:11.250Z,24.41
2022-08-09T06:53:07.203Z,24.30
2022-08-09T06:56:12.066Z,24.21
2022-08-09T07:00:50.844Z,24.18
2022-08-09T07:02:45.160Z,24.22
2022-08-09T07:06:02.612Z,24.35
2022-08-09T07:09:56.502Z,24.52
2022-08-09T07:12:38.515Z,24.71
2022-08-09T07:16:35.381Z,24.93
2022-08-09T07:19:15.734Z,24.99
2022-08-09T07:22:27.452Z,24.96
2022-08-09T07:25:42.736Z,25.23
2022-08-09T07:29:08.917Z,25.51
2022-08-09T07:32:13.576Z,25.72
2022-08-09T07:35:20.116Z,26.06
2022-08-09T07:38:31.221Z,26.20
2022-08-09T07:41:38.861Z,26.53
2022-08-09T07:44:51.666Z,26.52
2022-08-09T07:48:04.485Z,26.73
2022-08-09T07:52:06.085Z,26.88
2022-08-09T07:54:36.062Z,27.07
2022-08-09T07:57:46.957Z,27.28
2022-08-09T08:00:55.961Z,27.32
2022-08-09T08:04:10.930Z,27.52
2022-08-09T08:08:44.322Z,27.70
2022-08-09T08:11:03.118Z,27.74
2022-08-09T08:14:07.600Z,27.74
2022-08-09T08:17:35.344Z,27.76
2022-08-09T08:20:39.319Z,27.51
2022-08-09T08:23:55.735Z,27.63
2022-08-09T08:27:01.017Z,27.60
2022-08-09T08:30:07.115Z,27.71
2022-08-09T08:33:23.026Z,27.86
2022-08-09T08:36:30.748Z,27.76
2022-08-09T08:39:39.750Z,27.75
2022-08-09T08:42:49.213Z,28.06
2022-08-09T08:46:10.189Z,28.24
2022-08-09T08:49:33.475Z,28.34
2022-08-09T08:52:57.492Z,28.50
2022-08-09T08:56:06.918Z,28.61
2022-08-09T08:59:19.408Z,28.73
2022-08-09T09:02:31.430Z,28.89
2022-08-09T09:06:00.651Z,29.04
2022-08-09T09:09:06.671Z,29.26
2022-08-09T09:12:30.300Z,29.25
2022-08-09T09:15:37.010Z,29.19
2022-08-09T09:18:48.155Z,29.28
2022-08-09T09:22:11.329Z,29.40
2022-08-09T09:26:01.042Z,29.36
2022-08-09T09:29:03.556Z,29.43
2022-08-09T09:32:20.817Z,29.61
2022-08-09T09:36:02.459Z,29.87
2022-08-09T09:39:11.472Z,29.86
2022-08-09T09:42:26.148Z,30.03
2022-08-09T09:49:32.175Z,30.30
2022-08-09T09:52:54.735Z,30.16
2022-08-09T09:56:05.548Z,30.06
2022-08-09T09:59:12.690Z,30.19
2022-08-09T10:02:26.336Z,30.39
2022-08-09T10:06:03.765Z,30.47
2022-08-09T10:09:21.886Z,30.64
2022-08-09T10:12:31.675Z,30.82
2022-08-09T10:16:09.612Z,30.88
2022-08-09T10:19:16.502Z,31.05
2022-08-09T10:22:33.403Z,30.95
2022-08-09T10:26:07.625Z,30.89
2022-08-09T10:29:22.754Z,30.96
2022-08-09T10:32:40.106Z,31.02
2022-08-09T10:35:49.938Z,31.19
2022-08-09T10:38:59.702Z,31.17
2022-08-09T10:42:05.291Z,31.05
2022-08-09T10:45:16.494Z,31.04
2022-08-09T10:48:31.106Z,31.19
2022-08-09T10:51:53.084Z,31.37
2022-08-09T10:54:58.127Z,31.15
2022-08-09T10:58:03.989Z,31.19
2022-08-09T11:03:13.559Z,31.23
2022-08-09T11:05:25.312Z,31.08
2022-08-09T11:08:47.858Z,31.26
2022-08-09T11:12:17.783Z,31.33
2022-08-09T11:15:33.664Z,31.45
2022-08-09T11:18:47.305Z,31.38
2022-08-09T11:22:05.167Z,31.28
2022-08-09T11:25:26.127Z,31.32
2022-08-09T11:28:56.477Z,31.61
2022-08-09T11:32:02.367Z,31.78
2022-08-09T11:35:11.001Z,31.99
2022-08-09T11:38:19.368Z,31.95
2022-08-09T11:41:38.040Z,31.88
2022-08-09T11:44:49.491Z,31.91
2022-08-09T11:47:59.959Z,31.92
2022-08-09T11:52:50.021Z,31.66
2022-08-09T11:54:35.003Z,31.76
2022-08-09T11:57:47.592Z,31.63
2022-08-09T12:01:23.775Z,31.96
2022-08-09T12:04:37.335Z,32.11
2022-08-09T12:07:43.179Z,32.34
2022-08-09T12:10:50.285Z,32.52
2022-08-09T12:14:08.352Z,32.51
2022-08-09T12:17:34.660Z,32.26
2022-08-09T12:20:46.609Z,32.24
2022-08-09T12:24:06.717Z,32.35
2022-08-09T12:29:11.902Z,32.53
2022-08-09T12:30:49.395Z,32.75
2022-08-09T12:34:00.812Z,32.80
2022-08-09T12:37:21.690Z,32.87
2022-08-09T12:40:30.989Z,32.89
2022-08-09T12:44:06.325Z,32.96
2022-08-09T12:47:08.150Z,33.09
2022-08-09T12:50:23.417Z,33.11
2022-08-09T12:53:37.619Z,33.21
2022-08-09T12:56:54.187Z,33.12
2022-08-09T13:00:14.597Z,33.17
2022-08-09T13:03:54.153Z,33.09
2022-08-09T13:06:55.828Z,32.85
2022-08-09T13:10:04.867Z,32.65
2022-08-09T13:13:11.442Z,32.60
2022-08-09T13:16:17.706Z,32.55
2022-08-09T13:20:08.706Z,32.66
2022-08-09T13:23:05.739Z,32.52
2022-08-09T13:26:36.712Z,32.68
2022-08-09T13:30:04.119Z,32.72
2022-08-09T13:33:52.210Z,33.04
2022-08-09T13:36:52.564Z,33.20
2022-08-09T13:41:50.812Z,32.94
2022-08-09T13:43:23.128Z,32.82
2022-08-09T13:47:17.959Z,33.09
2022-08-09T13:50:12.679Z,33.20
2022-08-09T13:53:28.545Z,33.44
2022-08-09T13:56:48.657Z,33.49
2022-08-09T13:59:53.809Z,33.68
2022-08-09T14:03:02.958Z,33.74
2022-08-09T14:06:25.708Z,33.97
2022-08-09T14:09:34.742Z,33.96
2022-08-09T14:12:40.781Z,33.99
2022-08-09T14:16:07.149Z,34.16
2022-08-09T14:19:11.003Z,34.22
2022-08-09T14:22:15.970Z,34.26
2022-08-09T14:25:23.098Z,34.35
2022-08-09T14:28:28.196Z,34.02
2022-08-09T14:31:50.306Z,33.66
2022-08-09T14:34:58.969Z,33.47
2022-08-09T14:38:04.435Z,33.27
2022-08-09T14:41:26.737Z,33.29
2022-08-09T14:44:48.434Z,33.59
2022-08-09T14:48:02.575Z,33.92
2022-08-09T14:51:09.015Z,34.11
2022-08-09T14:54:16.196Z,34.24
2022-08-09T14:57:22.727Z,34.12
2022-08-09T15:00:37.432Z,34.11
2022-08-09T15:03:47.888Z,34.04
2022-08-09T15:06:54.678Z,34.09
2022-08-09T15:10:07.399Z,33.95
2022-08-09T15:13:17.756Z,33.92
2022-08-09T15:16:23.279Z,33.85
2022-08-09T15:19:36.022Z,34.00
2022-08-09T15:22:46.462Z,33.98
2022-08-09T15:25:52.216Z,33.49
2022-08-09T15:29:04.454Z,33.42
2022-08-09T15:32:29.970Z,33.10
2022-08-09T15:35:44.114Z,32.65
2022-08-09T15:39:00.700Z,32.75
2022-08-09T15:42:06.286Z,32.89
2022-08-09T15:45:14.912Z,33.00
2022-08-09T15:48:29.072Z,32.94
2022-08-09T15:52:03.092Z,32.67
2022-08-09T15:55:00.203Z,32.71
2022-08-09T15:58:05.078Z,32.66
2022-08-09T16:01:35.386Z,32.70
2022-08-09T16:04:42.788Z,32.65
2022-08-09T16:07:49.489Z,32.58
2022-08-09T16:10:56.980Z,32.39
2022-08-09T16:14:06.806Z,32.26
2022-08-09T16:17:17.049Z,31.91
2022-08-09T16:20:30.252Z,31.87
2022-08-09T16:23:35.319Z,31.71
2022-08-09T16:26:42.980Z,31.48
2022-08-09T16:29:58.573Z,31.22
2022-08-09T16:33:12.327Z,31.21
2022-08-09T16:36:21.847Z,31.16
2022-08-09T16:39:30.456Z,31.07
2022-08-09T16:42:53.403Z,30.94
2022-08-09T16:45:57.885Z,30.63
2022-08-09T16:49:18.787Z,30.34
2022-08-09T16:52:27.624Z,30.19
2022-08-09T16:55:57.807Z,30.19
2022-08-09T16:58:55.232Z,30.18
2022-08-09T17:02:02.463Z,30.12
2022-08-09T17:05:09.651Z,30.03
2022-08-09T17:08:45.795Z,29.93
2022-08-09T17:11:42.363Z,29.89
2022-08-09T17:14:49.282Z,29.85
2022-08-09T17:18:00.849Z,29.81
2022-08-09T17:21:08.460Z,29.65
2022-08-09T17:24:27.710Z,29.50
2022-08-09T17:27:38.222Z,29.43
2022-08-09T17:30:47.616Z,29.33
2022-08-09T17:33:53.511Z,29.18
2022-08-09T17:36:58.884Z,29.06
2022-08-09T17:40:18.113Z,28.97
2022-08-09T17:43:35.370Z,28.95
2022-08-09T17:46:41.843Z,28.86
2022-08-09T17:50:10.897Z,28.85
2022-08-09T17:53:23.024Z,28.70
2022-08-09T17:56:29.303Z,28.61
2022-08-09T17:59:38.918Z,28.59
2022-08-09T18:02:58.199Z,28.56
2022-08-09T18:06:03.087Z,28.43
2022-08-09T18:09:08.832Z,28.41
2022-08-09T18:12:19.532Z,28.35
2022-08-09T18:15:50.658Z,28.25
2022-08-09T18:18:49.058Z,28.24
2022-08-09T18:21:53.161Z,28.13
2022-08-09T18:24:58.507Z,28.03
2022-08-09T18:28:09.214Z,27.94
2022-08-09T18:31:51.381Z,27.84
2022-08-09T18:34:49.670Z,27.80
2022-08-09T18:37:56.558Z,27.75
2022-08-09T18:41:02.196Z,27.64
2022-08-09T18:44:13.555Z,27.60
2022-08-09T18:47:23.402Z,27.55
2022-08-09T18:50:33.514Z,27.47
2022-08-09T18:53:59.780Z,27.38
2022-08-09T18:57:05.741Z,27.30
2022-08-09T19:00:19.102Z,27.16
2022-08-09T19:03:25.473Z,27.09
2022-08-09T19:06:32.618Z,27.01
2022-08-09T19:10:14.781Z,26.90
2022-08-09T19:13:22.585Z,26.70
2022-08-09T19:16:36.591Z,26.50
2022-08-09T19:19:42.118Z,26.31
2022-08-09T19:22:53.984Z,26.13
2022-08-09T19:26:02.355Z,26.02
2022-08-09T19:29:18.329Z,25.95
2022-08-09T19:32:29.474Z,25.76
2022-08-09T19:35:58.156Z,25.72
2022-08-09T19:38:58.813Z,25.60
2022-08-09T19:42:08.345Z,25.55
2022-08-09T19:45:13.857Z,25.46
2022-08-09T19:48:17.631Z,25.37
2022-08-09T19:51:42.019Z,25.24
2022-08-09T19:54:55.463Z,25.13
2022-08-09T19:57:59.711Z,25.08
2022-08-09T20:01:05.037Z,25.03
2022-08-09T20:04:27.857Z,24.95
2022-08-09T20:07:59.356Z,24.90
2022-08-09T20:11:07.713Z,24.85
2022-08-09T20:14:15.439Z,24.82
2022-08-09T20:17:20.865Z,24.79
2022-08-09T20:20:25.189Z,24.74
2022-08-09T20:23:38.961Z,24.71
2022-08-09T20:26:43.964Z,24.65
2022-08-09T20:29:48.764Z,24.59
2022-08-09T20:32:54.896Z,24.51
2022-08-09T20:35:58.740Z,24.44
2022-08-09T20:39:28.415Z,24.40
2022-08-09T20:42:26.937Z,24.29
2022-08-09T20:45:59.794Z,24.20
2022-08-09T20:48:56.692Z,24.12
2022-08-09T20:52:00.613Z,24.03
2022-08-09T20:55:06.976Z,23.87
2022-08-09T20:58:20.225Z,23.77
2022-08-09T21:01:34.867Z,23.64
2022-08-09T21:05:54.696Z,23.52
2022-08-09T21:08:14.587Z,23.34
2022-08-09T21:14:43.192Z,23.14
2022-08-09T21:18:11.713Z,23.00
2022-08-09T21:21:19.150Z,22.87
2022-08-09T21:24:28.468Z,22.84
2022-08-09T21:27:52.577Z,22.76
2022-08-09T21:30:56.905Z,22.65
2022-08-09T21:34:01.774Z,22.62
2022-08-09T21:37:18.342Z,22.58
2022-08-09T21:40:30.252Z,22.53
2022-08-09T21:43:56.608Z,22.52
2022-08-09T21:46:58.467Z,22.45
2022-08-09T21:50:02.248Z,22.41
2022-08-09T21:53:15.703Z,22.26
2022-08-09T21:56:54.631Z,22.23
2022-08-09T21:59:58.603Z,22.18
2022-08-09T22:03:05.803Z,22.13
2022-08-09T22:06:10.005Z,22.03
2022-08-09T22:09:17.006Z,21.94
2022-08-09T22:12:31.413Z,21.85
2022-08-09T22:15:37.071Z,21.73
2022-08-09T22:18:52.180Z,21.64
2022-08-09T22:21:57.842Z,21.55
2022-08-09T22:26:06.971Z,21.54
2022-08-09T22:28:32.503Z,21.44
2022-08-09T22:31:36.944Z,21.42
2022-08-09T22:34:42.122Z,21.41
2022-08-09T22:37:46.927Z,21.35
2022-08-09T22:40:58.175Z,21.31
2022-08-09T22:44:04.216Z,21.28
2022-08-09T22:48:14.399Z,21.24
2022-08-09T22:50:33.880Z,21.16
2022-08-09T22:53:58.607Z,21.18
2022-08-09T22:57:05.611Z,21.18
2022-08-09T23:00:14.418Z,21.18
2022-08-09T23:04:02.452Z,21.16
2022-08-09T23:07:01.507Z,21.12
2022-08-09T23:10:05.698Z,21.10
2022-08-09T23:13:12.661Z,21.09
2022-08-09T23:16:19.367Z,21.06
2022-08-09T23:19:23.164Z,21.05
2022-08-09T23:22:27.676Z,21.12
2022-08-09T23:25:31.423Z,21.22
2022-08-09T23:28:37.074Z,21.29
2022-08-09T23:31:41.160Z,21.34
2022-08-09T23:34:45.157Z,21.36
2022-08-09T23:37:48.864Z,21.38
2022-08-09T23:40:52.635Z,21.34
2022-08-09T23:43:57.545Z,21.34
2022-08-09T23:47:00.961Z,21.27
2022-08-09T23:50:04.146Z,21.27
2022-08-09T23:53:07.188Z,21.24
2022-08-09T23:56:12.350Z,21.21
2022-08-09T23:59:16.446Z,21.19
